TimeCST,TemperatureF,Dew PointF,Humidity,Sea Level PressureIn,VisibilityMPH,Wind Direction,Wind SpeedMPH,Gust SpeedMPH,PrecipitationIn,Events,Conditions,WindDirDegrees,DateUTC
12:07 AM,60.8,60.8,100,29.90,10.0,ESE,2.3,-,N/A,,Overcast,120,2013-02-23 06:07:00
12:17 AM,60.8,60.8,100,29.90,10.0,East,4.6,-,N/A,,Overcast,100,2013-02-23 06:17:00
12:27 AM,60.8,60.8,100,29.89,10.0,SE,4.6,-,N/A,,Overcast,130,2013-02-23 06:27:00
12:47 AM,60.8,60.8,100,29.89,10.0,ESE,6.9,-,N/A,,Overcast,120,2013-02-23 06:47:00
12:58 AM,61.5,61.3,99,29.90,10.0,SE,4.6,-,0.00,,Overcast,140,2013-02-23 06:58:00
1:03 AM,62.6,62.6,100,29.89,10.0,SE,5.8,-,N/A,,Overcast,140,2013-02-23 07:03:00
1:08 AM,62.6,62.6,100,29.89,10.0,SSE,4.6,-,N/A,,Overcast,150,2013-02-23 07:08:00
1:23 AM,62.6,62.6,100,29.87,1.8,SSE,5.8,-,N/A,,Overcast,150,2013-02-23 07:23:00
1:28 AM,62.6,62.6,100,29.86,1.0,SSE,5.8,-,N/A,,Mist,150,2013-02-23 07:28:00
1:33 AM,64.4,62.6,94,29.86,0.8,SSE,6.9,-,N/A,,Mist,160,2013-02-23 07:33:00
1:38 AM,64.4,64.4,100,29.85,0.5,SSE,6.9,-,N/A,Fog,Fog,160,2013-02-23 07:38:00
1:53 AM,64.4,64.4,100,29.85,0.8,South,8.1,-,N/A,,Mist,180,2013-02-23 07:53:00
1:58 AM,66.2,66.2,100,29.86,1.0,South,8.1,-,N/A,,Mist,180,2013-02-23 07:58:00
2:28 AM,66.2,66.2,100,29.86,1.2,South,5.8,-,N/A,,Overcast,190,2013-02-23 08:28:00
2:43 AM,66.2,66.2,100,29.85,1.0,SSW,4.6,-,N/A,,Mist,200,2013-02-23 08:43:00
2:53 AM,66.2,66.2,100,29.85,1.2,SSW,4.6,-,N/A,,Overcast,200,2013-02-23 08:53:00
2:58 AM,66.7,66.7,100,29.86,1.8,South,5.8,-,N/A,,Overcast,190,2013-02-23 08:58:00
3:03 AM,66.2,66.2,100,29.85,2.5,South,6.9,-,N/A,,Overcast,190,2013-02-23 09:03:00
3:08 AM,68.0,66.2,94,29.85,4.0,South,5.8,-,N/A,,Overcast,190,2013-02-23 09:08:00
3:18 AM,68.0,66.2,94,29.85,5.0,SSW,5.8,-,N/A,,Overcast,210,2013-02-23 09:18:00
3:23 AM,68.0,66.2,94,29.85,5.0,SSW,8.1,-,N/A,,Overcast,200,2013-02-23 09:23:00
3:33 AM,68.0,68.0,100,29.85,7.0,SSW,4.6,-,N/A,,Overcast,200,2013-02-23 09:33:00
3:38 AM,68.0,68.0,100,29.85,7.0,SSW,4.6,-,N/A,,Overcast,200,2013-02-23 09:38:00
3:39 AM,68.0,68.0,100,29.85,7.0,SSW,4.6,-,N/A,,Overcast,200,2013-02-23 09:39:00
3:54 AM,68.0,68.0,100,29.85,6.0,SSW,4.6,-,N/A,,Overcast,210,2013-02-23 09:54:00
3:55 AM,68.0,68.0,100,29.85,6.0,SSW,4.6,-,N/A,,Overcast,210,2013-02-23 09:55:00
3:58 AM,68.0,66.2,94,29.86,6.0,SSW,4.6,-,N/A,,Overcast,210,2013-02-23 09:58:00
4:03 AM,68.0,68.0,100,29.84,6.0,SSW,4.6,-,N/A,,Overcast,200,2013-02-23 10:03:00
4:08 AM,68.0,68.0,100,29.85,6.0,SW,4.6,-,N/A,,Overcast,220,2013-02-23 10:08:00
4:18 AM,66.2,66.2,100,29.85,4.0,NW,11.5,-,N/A,,Overcast,320,2013-02-23 10:18:00
4:23 AM,64.4,64.4,100,29.85,2.0,NW,9.2,-,N/A,,Overcast,310,2013-02-23 10:23:00
4:28 AM,62.6,62.6,100,29.86,2.0,NW,12.7,-,N/A,,Overcast,320,2013-02-23 10:28:00
4:33 AM,62.6,62.6,100,29.86,3.0,NW,10.4,-,N/A,,Overcast,320,2013-02-23 10:33:00
4:53 AM,60.8,60.8,100,29.87,10.0,NW,9.2,-,N/A,,Overcast,320,2013-02-23 10:53:00
4:58 AM,60.8,60.6,99,29.87,10.0,NW,9.2,-,N/A,,Overcast,320,2013-02-23 10:58:00
5:13 AM,59.0,59.0,100,29.88,10.0,NW,6.9,-,N/A,,Overcast,320,2013-02-23 11:13:00
5:17 AM,59.0,59.0,100,29.88,9.0,NNW,5.8,-,N/A,Rain,Light Rain,330,2013-02-23 11:17:00
5:27 AM,59.0,59.0,100,29.88,8.0,NNW,8.1,-,N/A,Rain,Light Rain,340,2013-02-23 11:27:00
5:32 AM,59.0,59.0,100,29.88,9.0,NNW,5.8,-,N/A,Rain,Light Rain,330,2013-02-23 11:32:00
5:58 AM,57.2,57.2,100,29.90,4.0,NNW,8.1,-,0.14,Rain,Light Rain,330,2013-02-23 11:58:00
6:08 AM,57.2,57.2,100,29.89,7.0,NW,4.6,-,N/A,Rain,Light Rain,320,2013-02-23 12:08:00
6:18 AM,57.2,57.2,100,29.89,7.0,North,4.6,-,N/A,Rain,Light Rain,350,2013-02-23 12:18:00
6:33 AM,57.2,57.2,100,29.90,2.0,Calm,Calm,-,N/A,Rain,Heavy Rain,10,2013-02-23 12:33:00
6:34 AM,57.2,57.2,100,29.89,2.0,Calm,Calm,-,N/A,Rain,Heavy Rain,10,2013-02-23 12:34:00
6:39 AM,57.2,57.2,100,29.89,1.2,North,1.2,-,N/A,Rain,Light Rain,10,2013-02-23 12:39:00
6:44 AM,57.2,57.2,100,29.89,2.0,East,2.3,-,N/A,Rain,Rain,90,2013-02-23 12:44:00
6:49 AM,59.0,57.2,94,29.89,6.0,ESE,3.5,-,N/A,Rain,Light Rain,120,2013-02-23 12:49:00
6:54 AM,59.0,57.2,94,29.89,10.0,ESE,3.5,-,N/A,,Light Drizzle,110,2013-02-23 12:54:00
6:58 AM,58.3,57.9,99,29.90,10.0,East,2.3,-,0.20,Rain,Light Rain,90,2013-02-23 12:58:00
7:25 AM,59.0,59.0,100,29.90,10.0,NW,5.8,-,N/A,,Overcast,320,2013-02-23 13:25:00
7:31 AM,59.0,59.0,100,29.91,10.0,WNW,8.1,-,N/A,Rain,Light Rain,300,2013-02-23 13:31:00
7:58 AM,58.5,57.9,98,29.90,8.0,NNW,4.6,-,0.07,Rain,Light Rain,340,2013-02-23 13:58:00
8:17 AM,59.0,59.0,100,29.90,10.0,WNW,5.8,-,N/A,Rain,Light Rain,300,2013-02-23 14:17:00
8:58 AM,59.2,58.5,97,29.91,8.0,ENE,1.2,-,0.10,Rain,Light Rain,60,2013-02-23 14:58:00
9:13 AM,59.0,59.0,100,29.91,10.0,NNW,4.6,-,N/A,Rain,Light Rain,330,2013-02-23 15:13:00
9:18 AM,59.0,59.0,100,29.91,10.0,NNW,5.8,-,N/A,Rain,Light Rain,330,2013-02-23 15:18:00
9:23 AM,59.0,59.0,100,29.91,9.0,NW,4.6,-,N/A,Rain,Rain,310,2013-02-23 15:23:00
9:33 AM,59.0,59.0,100,29.92,9.0,West,4.6,-,N/A,Rain,Light Rain,280,2013-02-23 15:33:00
9:38 AM,59.0,57.2,94,29.92,9.0,NW,2.3,-,N/A,Rain,Rain,310,2013-02-23 15:38:00
9:43 AM,59.0,57.2,94,29.90,8.0,NNW,3.5,-,N/A,Rain,Light Rain,340,2013-02-23 15:43:00
9:48 AM,57.2,57.2,100,29.90,9.0,NNE,3.5,-,N/A,Rain,Light Rain,20,2013-02-23 15:48:00
9:58 AM,58.1,57.6,98,29.90,10.0,NE,3.5,-,0.05,Rain,Light Rain,40,2013-02-23 15:58:00
10:11 AM,59.0,59.0,100,29.92,10.0,North,3.5,-,N/A,,Mostly Cloudy,350,2013-02-23 16:11:00
10:29 AM,59.0,59.0,100,29.92,10.0,Variable,1.2,-,N/A,,Overcast,0,2013-02-23 16:29:00
10:39 AM,59.0,59.0,100,29.93,10.0,Calm,Calm,-,N/A,,Overcast,0,2013-02-23 16:39:00
10:44 AM,59.0,57.2,94,29.93,10.0,Calm,Calm,-,N/A,,Overcast,0,2013-02-23 16:44:00
10:58 AM,59.4,57.7,94,29.93,10.0,NNE,2.3,-,0.00,,Overcast,20,2013-02-23 16:58:00
11:08 AM,59.0,59.0,100,29.92,10.0,NE,3.5,-,N/A,,Overcast,40,2013-02-23 17:08:00
11:18 AM,59.0,59.0,100,29.90,10.0,NE,5.8,-,N/A,,Overcast,40,2013-02-23 17:18:00
11:23 AM,59.0,59.0,100,29.90,10.0,NE,4.6,-,N/A,,Overcast,50,2013-02-23 17:23:00
11:38 AM,60.8,59.0,94,29.90,10.0,Variable,2.3,-,N/A,,Overcast,0,2013-02-23 17:38:00
11:58 AM,60.4,58.5,93,29.90,10.0,NNW,5.8,-,N/A,,Overcast,330,2013-02-23 17:58:00
12:38 PM,60.8,57.2,88,29.89,10.0,NW,5.8,-,N/A,,Scattered Clouds,320,2013-02-23 18:38:00
12:43 PM,60.8,57.2,88,29.89,10.0,NW,5.8,-,N/A,,Scattered Clouds,320,2013-02-23 18:43:00
12:53 PM,59.0,57.2,94,29.88,10.0,NW,8.1,-,N/A,,Mostly Cloudy,320,2013-02-23 18:53:00
12:58 PM,59.7,57.4,92,29.90,10.0,NNW,8.1,-,N/A,,Mostly Cloudy,330,2013-02-23 18:58:00
1:58 PM,58.5,56.1,92,29.87,10.0,North,5.8,-,N/A,,Overcast,360,2013-02-23 19:58:00
2:58 PM,58.3,55.9,92,29.86,10.0,NNW,6.9,-,N/A,,Overcast,340,2013-02-23 20:58:00
3:30 PM,57.2,55.4,94,29.88,10.0,NW,1.2,-,N/A,Rain,Light Rain,320,2013-02-23 21:30:00
3:45 PM,57.2,55.4,94,29.89,10.0,WNW,5.8,-,N/A,Rain,Light Rain,300,2013-02-23 21:45:00
3:58 PM,57.2,55.4,94,29.88,10.0,NW,6.9,-,0.00,Rain,Light Rain,320,2013-02-23 21:58:00
4:48 PM,55.4,55.4,100,29.90,9.0,WNW,3.5,-,N/A,Rain,Light Rain,300,2013-02-23 22:48:00
4:58 PM,56.1,55.0,96,29.91,10.0,WNW,3.5,-,0.04,Rain,Light Rain,300,2013-02-23 22:58:00
5:03 PM,55.4,55.4,100,29.90,10.0,Calm,Calm,-,N/A,Rain,Light Rain,0,2013-02-23 23:03:00
5:08 PM,55.4,55.4,100,29.89,10.0,Calm,Calm,-,N/A,Rain,Light Rain,10,2013-02-23 23:08:00
5:23 PM,55.4,55.4,100,29.81,10.0,East,10.4,-,N/A,Rain,Light Rain,100,2013-02-23 23:23:00
5:32 PM,55.4,55.4,100,29.83,10.0,NNE,4.6,-,N/A,,Mostly Cloudy,20,2013-02-23 23:32:00
5:36 PM,55.4,55.4,100,29.82,10.0,NNE,5.8,-,N/A,,Mostly Cloudy,30,2013-02-23 23:36:00
5:46 PM,55.4,55.4,100,29.82,10.0,ENE,4.6,-,N/A,,Overcast,60,2013-02-23 23:46:00
5:51 PM,55.4,55.4,100,29.82,10.0,East,5.8,-,N/A,,Overcast,90,2013-02-23 23:51:00
5:58 PM,55.4,54.5,97,29.83,10.0,East,3.5,-,0.01,,Overcast,80,2013-02-23 23:58:00
6:58 PM,55.0,54.1,97,29.84,10.0,North,4.6,-,N/A,,Mostly Cloudy,10,2013-02-24 00:58:00
7:03 PM,55.4,53.6,94,29.84,10.0,NW,5.8,-,N/A,,Mostly Cloudy,320,2013-02-24 01:03:00
7:18 PM,55.4,53.6,94,29.87,10.0,NW,5.8,-,N/A,,Overcast,310,2013-02-24 01:18:00
7:28 PM,55.4,53.6,94,29.88,10.0,NW,5.8,-,N/A,,Overcast,320,2013-02-24 01:28:00
7:58 PM,54.9,54.0,97,29.90,10.0,NW,5.8,-,N/A,,Overcast,310,2013-02-24 01:58:00
8:13 PM,55.4,53.6,94,29.90,10.0,WNW,5.8,-,N/A,,Overcast,300,2013-02-24 02:13:00
8:58 PM,54.1,53.2,97,29.92,9.0,NNW,8.1,-,N/A,,Overcast,330,2013-02-24 02:58:00
9:43 PM,53.6,53.6,100,29.93,10.0,NW,5.8,-,N/A,,Overcast,320,2013-02-24 03:43:00
9:58 PM,53.8,52.9,97,29.95,10.0,NNW,8.1,-,N/A,,Overcast,340,2013-02-24 03:58:00
10:28 PM,53.6,51.8,94,29.94,10.0,NNW,5.8,-,N/A,,Overcast,330,2013-02-24 04:28:00
10:53 PM,53.6,51.8,94,29.94,10.0,North,4.6,-,N/A,,Overcast,360,2013-02-24 04:53:00
10:58 PM,53.2,52.2,96,29.95,10.0,North,4.6,-,N/A,,Overcast,350,2013-02-24 04:58:00
11:23 PM,53.6,51.8,94,29.95,10.0,NNW,4.6,-,N/A,,Overcast,330,2013-02-24 05:23:00
11:28 PM,53.6,51.8,94,29.95,10.0,NNW,3.5,-,N/A,,Overcast,330,2013-02-24 05:28:00
11:43 PM,53.6,51.8,94,29.95,10.0,NNW,4.6,-,N/A,,Overcast,340,2013-02-24 05:43:00
11:58 PM,53.2,51.8,95,29.97,10.0,NNW,3.5,-,N/A,,Overcast,340,2013-02-24 05:58:00
11:59 PM,53.6,51.8,94,29.96,10.0,NNW,3.5,-,N/A,,Overcast,330,2013-02-24 05:59:00